sensor_id;sensor_type;location;lat;lon;timestamp;P1;durP1;ratioP1;P2;durP2;ratioP2
53497;SDS011;39382;47.168;16.008;2023-03-31T00:01:04;5.15;;;3.83;;
53497;SDS011;39382;47.168;16.008;2023-03-31T00:03:30;7.82;;;4.40;;
53497;SDS011;39382;47.168;16.008;2023-03-31T00:05:58;8.85;;;4.30;;
53497;SDS011;39382;47.168;16.008;2023-03-31T00:08:28;12.32;;;4.22;;
53497;SDS011;39382;47.168;16.008;2023-03-31T00:10:59;6.38;;;3.72;;
53497;SDS011;39382;47.168;16.008;2023-03-31T00:13:26;14.45;;;3.60;;
53497;SDS011;39382;47.168;16.008;2023-03-31T00:15:56;6.85;;;3.17;;
53497;SDS011;39382;47.168;16.008;2023-03-31T00:18:26;29.10;;;3.30;;
53497;SDS011;39382;47.168;16.008;2023-03-31T00:20:53;15.73;;;3.45;;
53497;SDS011;39382;47.168;16.008;2023-03-31T00:23:23;12.10;;;2.80;;
53497;SDS011;39382;47.168;16.008;2023-03-31T00:25:52;19.08;;;3.25;;
53497;SDS011;39382;47.168;16.008;2023-03-31T00:28:18;16.85;;;3.05;;
53497;SDS011;39382;47.168;16.008;2023-03-31T00:30:44;16.00;;;3.22;;
53497;SDS011;39382;47.168;16.008;2023-03-31T00:33:11;6.05;;;2.47;;
53497;SDS011;39382;47.168;16.008;2023-03-31T00:35:37;8.25;;;2.83;;
53497;SDS011;39382;47.168;16.008;2023-03-31T00:38:03;6.97;;;2.75;;
53497;SDS011;39382;47.168;16.008;2023-03-31T00:40:30;4.38;;;3.00;;
53497;SDS011;39382;47.168;16.008;2023-03-31T00:42:56;5.47;;;3.28;;
53497;SDS011;39382;47.168;16.008;2023-03-31T00:45:23;2.83;;;2.47;;
53497;SDS011;39382;47.168;16.008;2023-03-31T00:48:13;4.45;;;2.63;;
53497;SDS011;39382;47.168;16.008;2023-03-31T00:50:43;2.47;;;1.83;;
53497;SDS011;39382;47.168;16.008;2023-03-31T00:53:21;4.40;;;3.05;;
53497;SDS011;39382;47.168;16.008;2023-03-31T00:55:52;6.13;;;3.10;;
53497;SDS011;39382;47.168;16.008;2023-03-31T00:58:20;8.25;;;3.13;;
53497;SDS011;39382;47.168;16.008;2023-03-31T01:00:52;22.92;;;3.70;;
53497;SDS011;39382;47.168;16.008;2023-03-31T01:03:20;28.05;;;3.65;;
53497;SDS011;39382;47.168;16.008;2023-03-31T01:05:50;14.27;;;2.90;;
53497;SDS011;39382;47.168;16.008;2023-03-31T01:08:20;21.00;;;3.97;;
53497;SDS011;39382;47.168;16.008;2023-03-31T01:10:51;10.35;;;3.88;;
53497;SDS011;39382;47.168;16.008;2023-03-31T01:13:19;14.80;;;3.42;;
53497;SDS011;39382;47.168;16.008;2023-03-31T01:15:46;16.88;;;3.83;;
53497;SDS011;39382;47.168;16.008;2023-03-31T01:18:12;5.22;;;3.20;;
53497;SDS011;39382;47.168;16.008;2023-03-31T01:40:36;3.45;;;2.50;;
53497;SDS011;39382;47.168;16.008;2023-03-31T01:43:09;5.00;;;2.95;;
53497;SDS011;39382;47.168;16.008;2023-03-31T01:54:41;4.40;;;2.40;;
53497;SDS011;39382;47.168;16.008;2023-03-31T02:03:04;4.32;;;2.40;;
53497;SDS011;39382;47.168;16.008;2023-03-31T02:06:28;2.83;;;2.25;;
53497;SDS011;39382;47.168;16.008;2023-03-31T02:08:38;2.10;;;1.95;;
53497;SDS011;39382;47.168;16.008;2023-03-31T02:11:07;2.25;;;1.70;;
53497;SDS011;39382;47.168;16.008;2023-03-31T02:13:32;4.05;;;2.00;;
53497;SDS011;39382;47.168;16.008;2023-03-31T02:16:01;3.83;;;2.47;;
53497;SDS011;39382;47.168;16.008;2023-03-31T02:18:32;2.65;;;2.10;;
53497;SDS011;39382;47.168;16.008;2023-03-31T02:21:02;3.80;;;3.10;;
53497;SDS011;39382;47.168;16.008;2023-03-31T02:23:30;3.65;;;2.72;;
53497;SDS011;39382;47.168;16.008;2023-03-31T02:26:17;3.03;;;2.72;;
53497;SDS011;39382;47.168;16.008;2023-03-31T02:28:47;3.42;;;2.22;;
53497;SDS011;39382;47.168;16.008;2023-03-31T02:31:27;6.38;;;2.40;;
53497;SDS011;39382;47.168;16.008;2023-03-31T02:33:53;2.90;;;2.20;;
53497;SDS011;39382;47.168;16.008;2023-03-31T02:36:20;6.38;;;3.03;;
53497;SDS011;39382;47.168;16.008;2023-03-31T02:39:05;3.05;;;2.78;;
53497;SDS011;39382;47.168;16.008;2023-03-31T02:41:36;2.72;;;2.15;;
53497;SDS011;39382;47.168;16.008;2023-03-31T02:44:02;3.45;;;2.10;;
53497;SDS011;39382;47.168;16.008;2023-03-31T02:46:28;2.95;;;2.22;;
53497;SDS011;39382;47.168;16.008;2023-03-31T02:48:55;2.85;;;2.30;;
53497;SDS011;39382;47.168;16.008;2023-03-31T02:51:35;2.67;;;2.17;;
53497;SDS011;39382;47.168;16.008;2023-03-31T03:11:01;5.05;;;2.75;;
53497;SDS011;39382;47.168;16.008;2023-03-31T03:13:41;3.42;;;2.92;;
53497;SDS011;39382;47.168;16.008;2023-03-31T03:16:23;3.60;;;2.83;;
53497;SDS011;39382;47.168;16.008;2023-03-31T03:19:00;3.45;;;2.97;;
53497;SDS011;39382;47.168;16.008;2023-03-31T03:21:28;2.22;;;2.00;;
53497;SDS011;39382;47.168;16.008;2023-03-31T03:23:54;4.15;;;2.25;;
53497;SDS011;39382;47.168;16.008;2023-03-31T03:26:20;2.90;;;2.50;;
53497;SDS011;39382;47.168;16.008;2023-03-31T03:28:48;3.10;;;2.10;;
53497;SDS011;39382;47.168;16.008;2023-03-31T03:31:15;2.38;;;2.17;;
53497;SDS011;39382;47.168;16.008;2023-03-31T03:33:41;2.92;;;2.47;;
53497;SDS011;39382;47.168;16.008;2023-03-31T03:36:07;2.63;;;2.33;;
53497;SDS011;39382;47.168;16.008;2023-03-31T03:38:33;4.35;;;2.95;;
53497;SDS011;39382;47.168;16.008;2023-03-31T03:40:59;4.47;;;2.85;;
53497;SDS011;39382;47.168;16.008;2023-03-31T03:43:24;4.80;;;3.17;;
53497;SDS011;39382;47.168;16.008;2023-03-31T03:45:50;3.55;;;2.90;;
53497;SDS011;39382;47.168;16.008;2023-03-31T03:48:16;2.35;;;2.10;;
53497;SDS011;39382;47.168;16.008;2023-03-31T03:50:44;3.22;;;2.33;;
53497;SDS011;39382;47.168;16.008;2023-03-31T03:53:10;2.63;;;2.42;;
53497;SDS011;39382;47.168;16.008;2023-03-31T03:55:37;3.47;;;2.30;;
53497;SDS011;39382;47.168;16.008;2023-03-31T03:58:02;3.40;;;2.53;;
53497;SDS011;39382;47.168;16.008;2023-03-31T04:00:28;5.18;;;2.95;;
53497;SDS011;39382;47.168;16.008;2023-03-31T04:02:54;5.50;;;2.97;;
53497;SDS011;39382;47.168;16.008;2023-03-31T04:05:20;8.93;;;3.90;;
53497;SDS011;39382;47.168;16.008;2023-03-31T04:07:46;5.95;;;3.63;;
53497;SDS011;39382;47.168;16.008;2023-03-31T04:10:11;4.68;;;2.55;;
53497;SDS011;39382;47.168;16.008;2023-03-31T04:12:37;3.28;;;2.63;;
53497;SDS011;39382;47.168;16.008;2023-03-31T04:15:03;3.70;;;2.70;;
53497;SDS011;39382;47.168;16.008;2023-03-31T04:17:29;3.15;;;2.58;;
53497;SDS011;39382;47.168;16.008;2023-03-31T04:20:05;5.40;;;2.78;;
53497;SDS011;39382;47.168;16.008;2023-03-31T04:22:34;5.18;;;2.58;;
53497;SDS011;39382;47.168;16.008;2023-03-31T04:25:04;2.58;;;2.38;;
53497;SDS011;39382;47.168;16.008;2023-03-31T04:27:38;2.58;;;1.98;;
53497;SDS011;39382;47.168;16.008;2023-03-31T04:30:10;4.47;;;2.20;;
53497;SDS011;39382;47.168;16.008;2023-03-31T04:32:38;3.70;;;2.65;;
53497;SDS011;39382;47.168;16.008;2023-03-31T04:35:04;4.97;;;3.75;;
53497;SDS011;39382;47.168;16.008;2023-03-31T04:37:30;4.35;;;3.42;;
53497;SDS011;39382;47.168;16.008;2023-03-31T04:39:59;5.65;;;3.95;;
53497;SDS011;39382;47.168;16.008;2023-03-31T04:42:32;7.22;;;3.75;;
53497;SDS011;39382;47.168;16.008;2023-03-31T04:44:58;6.68;;;4.32;;
53497;SDS011;39382;47.168;16.008;2023-03-31T04:47:23;16.83;;;5.68;;
53497;SDS011;39382;47.168;16.008;2023-03-31T04:49:49;14.32;;;5.60;;
53497;SDS011;39382;47.168;16.008;2023-03-31T04:52:15;18.67;;;6.72;;
53497;SDS011;39382;47.168;16.008;2023-03-31T04:54:40;15.10;;;9.88;;
53497;SDS011;39382;47.168;16.008;2023-03-31T04:57:06;8.73;;;6.07;;
53497;SDS011;39382;47.168;16.008;2023-03-31T04:59:32;7.68;;;5.28;;
53497;SDS011;39382;47.168;16.008;2023-03-31T05:01:57;4.85;;;3.88;;
53497;SDS011;39382;47.168;16.008;2023-03-31T05:04:23;4.78;;;3.45;;
53497;SDS011;39382;47.168;16.008;2023-03-31T05:06:49;3.55;;;3.25;;
53497;SDS011;39382;47.168;16.008;2023-03-31T05:09:15;6.55;;;3.85;;
53497;SDS011;39382;47.168;16.008;2023-03-31T05:11:41;5.13;;;3.90;;
53497;SDS011;39382;47.168;16.008;2023-03-31T05:14:06;7.20;;;3.80;;
53497;SDS011;39382;47.168;16.008;2023-03-31T05:16:32;4.15;;;2.85;;
53497;SDS011;39382;47.168;16.008;2023-03-31T05:18:58;9.27;;;3.30;;
53497;SDS011;39382;47.168;16.008;2023-03-31T05:21:24;7.50;;;3.50;;
53497;SDS011;39382;47.168;16.008;2023-03-31T05:23:51;6.57;;;3.58;;
53497;SDS011;39382;47.168;16.008;2023-03-31T05:26:17;10.30;;;3.60;;
53497;SDS011;39382;47.168;16.008;2023-03-31T05:28:42;5.32;;;2.72;;
53497;SDS011;39382;47.168;16.008;2023-03-31T05:31:08;4.80;;;2.60;;
53497;SDS011;39382;47.168;16.008;2023-03-31T05:33:35;8.00;;;2.65;;
53497;SDS011;39382;47.168;16.008;2023-03-31T05:36:04;4.03;;;2.88;;
53497;SDS011;39382;47.168;16.008;2023-03-31T05:38:30;4.90;;;2.65;;
53497;SDS011;39382;47.168;16.008;2023-03-31T05:40:58;3.28;;;2.97;;
53497;SDS011;39382;47.168;16.008;2023-03-31T05:43:24;3.53;;;2.60;;
53497;SDS011;39382;47.168;16.008;2023-03-31T05:45:49;3.78;;;2.65;;
53497;SDS011;39382;47.168;16.008;2023-03-31T05:48:15;4.55;;;3.00;;
53497;SDS011;39382;47.168;16.008;2023-03-31T05:50:41;3.08;;;2.72;;
53497;SDS011;39382;47.168;16.008;2023-03-31T05:53:08;8.23;;;2.80;;
53497;SDS011;39382;47.168;16.008;2023-03-31T05:55:38;4.20;;;3.42;;
53497;SDS011;39382;47.168;16.008;2023-03-31T05:58:03;4.68;;;3.47;;
53497;SDS011;39382;47.168;16.008;2023-03-31T06:00:30;5.85;;;2.97;;
53497;SDS011;39382;47.168;16.008;2023-03-31T06:02:56;3.60;;;2.97;;
53497;SDS011;39382;47.168;16.008;2023-03-31T06:05:23;2.78;;;2.58;;
53497;SDS011;39382;47.168;16.008;2023-03-31T06:07:51;6.07;;;3.92;;
53497;SDS011;39382;47.168;16.008;2023-03-31T06:10:17;4.05;;;3.15;;
53497;SDS011;39382;47.168;16.008;2023-03-31T06:12:43;5.88;;;4.32;;
53497;SDS011;39382;47.168;16.008;2023-03-31T06:15:09;4.65;;;3.70;;
53497;SDS011;39382;47.168;16.008;2023-03-31T06:17:35;3.50;;;3.08;;
53497;SDS011;39382;47.168;16.008;2023-03-31T06:20:01;5.60;;;5.10;;
53497;SDS011;39382;47.168;16.008;2023-03-31T06:22:28;5.68;;;4.57;;
53497;SDS011;39382;47.168;16.008;2023-03-31T06:24:53;24.30;;;10.75;;
53497;SDS011;39382;47.168;16.008;2023-03-31T06:27:19;14.43;;;8.77;;
53497;SDS011;39382;47.168;16.008;2023-03-31T06:29:45;10.10;;;6.28;;
53497;SDS011;39382;47.168;16.008;2023-03-31T06:32:11;7.43;;;6.20;;
53497;SDS011;39382;47.168;16.008;2023-03-31T06:34:36;4.30;;;3.42;;
53497;SDS011;39382;47.168;16.008;2023-03-31T06:37:02;5.05;;;4.60;;
53497;SDS011;39382;47.168;16.008;2023-03-31T06:39:28;5.78;;;3.90;;
53497;SDS011;39382;47.168;16.008;2023-03-31T06:41:53;4.28;;;2.95;;
53497;SDS011;39382;47.168;16.008;2023-03-31T06:44:19;4.57;;;3.78;;
53497;SDS011;39382;47.168;16.008;2023-03-31T06:46:47;7.90;;;4.47;;
53497;SDS011;39382;47.168;16.008;2023-03-31T06:49:13;4.13;;;2.85;;
53497;SDS011;39382;47.168;16.008;2023-03-31T06:51:38;7.03;;;4.43;;
53497;SDS011;39382;47.168;16.008;2023-03-31T06:54:04;4.25;;;3.28;;
53497;SDS011;39382;47.168;16.008;2023-03-31T06:56:30;5.80;;;5.20;;
53497;SDS011;39382;47.168;16.008;2023-03-31T06:58:56;7.45;;;5.15;;
53497;SDS011;39382;47.168;16.008;2023-03-31T07:01:21;6.43;;;4.63;;
53497;SDS011;39382;47.168;16.008;2023-03-31T07:03:47;5.65;;;3.67;;
53497;SDS011;39382;47.168;16.008;2023-03-31T07:06:12;6.72;;;4.03;;
53497;SDS011;39382;47.168;16.008;2023-03-31T07:08:38;4.95;;;3.80;;
53497;SDS011;39382;47.168;16.008;2023-03-31T07:11:04;7.68;;;6.45;;
53497;SDS011;39382;47.168;16.008;2023-03-31T07:13:30;11.13;;;4.03;;
53497;SDS011;39382;47.168;16.008;2023-03-31T07:15:56;4.82;;;4.25;;
53497;SDS011;39382;47.168;16.008;2023-03-31T07:18:22;11.52;;;5.53;;
53497;SDS011;39382;47.168;16.008;2023-03-31T07:20:56;12.27;;;6.45;;
53497;SDS011;39382;47.168;16.008;2023-03-31T07:23:22;7.63;;;5.43;;
53497;SDS011;39382;47.168;16.008;2023-03-31T07:25:47;8.82;;;6.00;;
53497;SDS011;39382;47.168;16.008;2023-03-31T07:28:13;16.67;;;10.23;;
53497;SDS011;39382;47.168;16.008;2023-03-31T07:30:39;21.63;;;7.18;;
53497;SDS011;39382;47.168;16.008;2023-03-31T07:33:05;8.68;;;4.90;;
53497;SDS011;39382;47.168;16.008;2023-03-31T07:35:31;9.00;;;4.93;;
53497;SDS011;39382;47.168;16.008;2023-03-31T07:37:57;6.65;;;4.18;;
53497;SDS011;39382;47.168;16.008;2023-03-31T07:40:24;6.00;;;4.03;;
53497;SDS011;39382;47.168;16.008;2023-03-31T07:42:51;8.05;;;5.60;;
53497;SDS011;39382;47.168;16.008;2023-03-31T07:45:21;6.38;;;4.57;;
53497;SDS011;39382;47.168;16.008;2023-03-31T07:47:48;13.82;;;7.97;;
53497;SDS011;39382;47.168;16.008;2023-03-31T07:50:14;15.45;;;7.53;;
53497;SDS011;39382;47.168;16.008;2023-03-31T07:52:41;9.73;;;6.85;;
53497;SDS011;39382;47.168;16.008;2023-03-31T07:55:07;8.75;;;5.63;;
53497;SDS011;39382;47.168;16.008;2023-03-31T07:57:34;48.03;;;19.17;;
53497;SDS011;39382;47.168;16.008;2023-03-31T08:00:01;23.98;;;12.77;;
53497;SDS011;39382;47.168;16.008;2023-03-31T08:02:31;29.33;;;16.48;;
53497;SDS011;39382;47.168;16.008;2023-03-31T08:04:57;15.75;;;9.48;;
53497;SDS011;39382;47.168;16.008;2023-03-31T08:07:22;30.42;;;20.35;;
53497;SDS011;39382;47.168;16.008;2023-03-31T08:09:49;23.10;;;14.73;;
53497;SDS011;39382;47.168;16.008;2023-03-31T08:12:15;15.90;;;9.93;;
53497;SDS011;39382;47.168;16.008;2023-03-31T08:14:41;19.20;;;11.10;;
53497;SDS011;39382;47.168;16.008;2023-03-31T08:17:08;9.77;;;6.00;;
53497;SDS011;39382;47.168;16.008;2023-03-31T08:19:35;11.88;;;7.57;;
53497;SDS011;39382;47.168;16.008;2023-03-31T08:22:00;11.23;;;5.55;;
53497;SDS011;39382;47.168;16.008;2023-03-31T08:24:26;3.55;;;3.22;;
53497;SDS011;39382;47.168;16.008;2023-03-31T08:26:52;16.60;;;5.97;;
53497;SDS011;39382;47.168;16.008;2023-03-31T08:29:18;10.77;;;4.90;;
53497;SDS011;39382;47.168;16.008;2023-03-31T08:31:43;12.40;;;8.15;;
53497;SDS011;39382;47.168;16.008;2023-03-31T08:34:09;6.72;;;4.35;;
53497;SDS011;39382;47.168;16.008;2023-03-31T08:36:35;9.63;;;2.88;;
53497;SDS011;39382;47.168;16.008;2023-03-31T08:39:00;4.63;;;2.88;;
53497;SDS011;39382;47.168;16.008;2023-03-31T08:41:32;3.88;;;3.08;;
53497;SDS011;39382;47.168;16.008;2023-03-31T08:44:20;3.60;;;2.58;;
53497;SDS011;39382;47.168;16.008;2023-03-31T08:47:08;13.30;;;5.95;;
53497;SDS011;39382;47.168;16.008;2023-03-31T08:49:41;5.00;;;3.20;;
53497;SDS011;39382;47.168;16.008;2023-03-31T08:52:12;4.78;;;2.53;;
53497;SDS011;39382;47.168;16.008;2023-03-31T08:54:42;3.30;;;2.28;;
53497;SDS011;39382;47.168;16.008;2023-03-31T08:57:19;8.93;;;4.95;;
53497;SDS011;39382;47.168;16.008;2023-03-31T08:59:51;7.07;;;3.95;;
53497;SDS011;39382;47.168;16.008;2023-03-31T09:02:21;6.63;;;1.83;;
53497;SDS011;39382;47.168;16.008;2023-03-31T09:05:36;3.90;;;2.33;;
53497;SDS011;39382;47.168;16.008;2023-03-31T09:14:09;8.38;;;5.88;;
53497;SDS011;39382;47.168;16.008;2023-03-31T09:22:29;5.60;;;2.75;;
53497;SDS011;39382;47.168;16.008;2023-03-31T09:27:36;10.23;;;7.28;;
53497;SDS011;39382;47.168;16.008;2023-03-31T09:32:36;7.63;;;3.75;;
53497;SDS011;39382;47.168;16.008;2023-03-31T09:37:40;2.72;;;2.28;;
53497;SDS011;39382;47.168;16.008;2023-03-31T09:40:06;3.65;;;2.60;;
53497;SDS011;39382;47.168;16.008;2023-03-31T09:42:39;4.63;;;2.80;;
53497;SDS011;39382;47.168;16.008;2023-03-31T09:45:05;3.35;;;2.22;;
53497;SDS011;39382;47.168;16.008;2023-03-31T09:47:38;2.55;;;1.20;;
53497;SDS011;39382;47.168;16.008;2023-03-31T09:50:10;5.28;;;1.50;;
53497;SDS011;39382;47.168;16.008;2023-03-31T09:52:36;2.33;;;1.88;;
53497;SDS011;39382;47.168;16.008;2023-03-31T09:55:16;2.17;;;1.95;;
53497;SDS011;39382;47.168;16.008;2023-03-31T09:57:49;4.93;;;1.80;;
53497;SDS011;39382;47.168;16.008;2023-03-31T10:00:19;4.20;;;1.45;;
53497;SDS011;39382;47.168;16.008;2023-03-31T10:02:50;1.58;;;1.27;;
53497;SDS011;39382;47.168;16.008;2023-03-31T10:05:34;1.38;;;1.15;;
53497;SDS011;39382;47.168;16.008;2023-03-31T10:10:54;2.55;;;1.13;;
53497;SDS011;39382;47.168;16.008;2023-03-31T10:13:35;1.10;;;1.00;;
53497;SDS011;39382;47.168;16.008;2023-03-31T10:16:26;0.80;;;0.75;;
53497;SDS011;39382;47.168;16.008;2023-03-31T10:18:52;0.90;;;0.90;;
53497;SDS011;39382;47.168;16.008;2023-03-31T10:21:19;2.63;;;1.02;;
53497;SDS011;39382;47.168;16.008;2023-03-31T10:23:47;1.58;;;1.05;;
53497;SDS011;39382;47.168;16.008;2023-03-31T10:26:22;3.97;;;0.85;;
53497;SDS011;39382;47.168;16.008;2023-03-31T10:28:50;1.65;;;0.85;;
53497;SDS011;39382;47.168;16.008;2023-03-31T10:31:19;2.45;;;0.90;;
53497;SDS011;39382;47.168;16.008;2023-03-31T10:33:49;1.70;;;1.35;;
53497;SDS011;39382;47.168;16.008;2023-03-31T10:36:20;1.10;;;0.70;;
53497;SDS011;39382;47.168;16.008;2023-03-31T10:38:51;1.02;;;0.80;;
53497;SDS011;39382;47.168;16.008;2023-03-31T10:41:23;1.75;;;1.50;;
53497;SDS011;39382;47.168;16.008;2023-03-31T10:43:53;1.70;;;0.80;;
53497;SDS011;39382;47.168;16.008;2023-03-31T10:46:20;3.25;;;1.33;;
53497;SDS011;39382;47.168;16.008;2023-03-31T10:49:23;1.80;;;1.70;;
53497;SDS011;39382;47.168;16.008;2023-03-31T10:51:57;2.38;;;1.52;;
53497;SDS011;39382;47.168;16.008;2023-03-31T10:54:25;6.13;;;3.95;;
53497;SDS011;39382;47.168;16.008;2023-03-31T10:56:51;4.60;;;2.25;;
53497;SDS011;39382;47.168;16.008;2023-03-31T11:30:00;1.67;;;0.88;;
53497;SDS011;39382;47.168;16.008;2023-03-31T11:32:58;1.98;;;1.08;;
53497;SDS011;39382;47.168;16.008;2023-03-31T11:40:59;2.53;;;1.10;;
53497;SDS011;39382;47.168;16.008;2023-03-31T11:44:13;3.38;;;0.63;;
53497;SDS011;39382;47.168;16.008;2023-03-31T11:46:39;4.97;;;2.70;;
53497;SDS011;39382;47.168;16.008;2023-03-31T11:49:31;5.35;;;3.45;;
53497;SDS011;39382;47.168;16.008;2023-03-31T11:52:13;1.73;;;1.35;;
53497;SDS011;39382;47.168;16.008;2023-03-31T11:54:52;1.20;;;0.93;;
53497;SDS011;39382;47.168;16.008;2023-03-31T11:57:26;1.20;;;0.82;;
53497;SDS011;39382;47.168;16.008;2023-03-31T12:05:29;3.20;;;0.80;;
53497;SDS011;39382;47.168;16.008;2023-03-31T12:10:45;1.73;;;0.77;;
53497;SDS011;39382;47.168;16.008;2023-03-31T12:22:01;5.78;;;0.85;;
53497;SDS011;39382;47.168;16.008;2023-03-31T12:24:40;1.75;;;1.10;;
53497;SDS011;39382;47.168;16.008;2023-03-31T12:27:10;1.27;;;0.47;;
53497;SDS011;39382;47.168;16.008;2023-03-31T12:32:46;3.03;;;0.80;;
53497;SDS011;39382;47.168;16.008;2023-03-31T12:41:15;6.57;;;1.38;;
53497;SDS011;39382;47.168;16.008;2023-03-31T12:43:59;1.50;;;1.40;;
53497;SDS011;39382;47.168;16.008;2023-03-31T12:47:09;1.48;;;1.05;;
53497;SDS011;39382;47.168;16.008;2023-03-31T12:57:52;1.58;;;1.20;;
53497;SDS011;39382;47.168;16.008;2023-03-31T13:06:11;4.03;;;1.52;;
53497;SDS011;39382;47.168;16.008;2023-03-31T13:16:23;2.45;;;1.00;;
53497;SDS011;39382;47.168;16.008;2023-03-31T13:18:52;1.02;;;0.90;;
53497;SDS011;39382;47.168;16.008;2023-03-31T13:21:19;0.75;;;0.75;;
53497;SDS011;39382;47.168;16.008;2023-03-31T13:23:45;2.15;;;0.90;;
53497;SDS011;39382;47.168;16.008;2023-03-31T13:48:37;0.60;;;0.60;;
53497;SDS011;39382;47.168;16.008;2023-03-31T13:54:15;3.50;;;0.82;;
53497;SDS011;39382;47.168;16.008;2023-03-31T14:07:16;1.13;;;0.52;;
53497;SDS011;39382;47.168;16.008;2023-03-31T14:09:46;0.50;;;0.50;;
53497;SDS011;39382;47.168;16.008;2023-03-31T14:14:53;0.60;;;0.52;;
53497;SDS011;39382;47.168;16.008;2023-03-31T14:17:19;1.42;;;0.60;;
53497;SDS011;39382;47.168;16.008;2023-03-31T14:19:54;2.67;;;0.75;;
53497;SDS011;39382;47.168;16.008;2023-03-31T14:23:18;2.35;;;0.88;;
53497;SDS011;39382;47.168;16.008;2023-03-31T14:28:24;0.90;;;0.50;;
53497;SDS011;39382;47.168;16.008;2023-03-31T14:37:22;1.27;;;1.13;;
53497;SDS011;39382;47.168;16.008;2023-03-31T14:39:49;15.55;;;7.65;;
53497;SDS011;39382;47.168;16.008;2023-03-31T14:42:18;1.67;;;1.58;;
53497;SDS011;39382;47.168;16.008;2023-03-31T14:44:47;20.60;;;9.90;;
53497;SDS011;39382;47.168;16.008;2023-03-31T14:47:20;2.80;;;1.83;;
53497;SDS011;39382;47.168;16.008;2023-03-31T14:50:10;6.63;;;3.67;;
53497;SDS011;39382;47.168;16.008;2023-03-31T14:52:45;9.65;;;4.72;;
53497;SDS011;39382;47.168;16.008;2023-03-31T14:55:16;21.17;;;10.27;;
53497;SDS011;39382;47.168;16.008;2023-03-31T14:57:46;26.75;;;13.13;;
53497;SDS011;39382;47.168;16.008;2023-03-31T15:00:16;16.05;;;8.48;;
53497;SDS011;39382;47.168;16.008;2023-03-31T15:02:49;25.05;;;11.88;;
53497;SDS011;39382;47.168;16.008;2023-03-31T15:05:25;8.80;;;5.15;;
53497;SDS011;39382;47.168;16.008;2023-03-31T15:07:58;19.48;;;10.85;;
53497;SDS011;39382;47.168;16.008;2023-03-31T15:10:29;20.65;;;10.25;;
53497;SDS011;39382;47.168;16.008;2023-03-31T15:13:07;16.95;;;8.25;;
53497;SDS011;39382;47.168;16.008;2023-03-31T15:15:40;6.00;;;3.80;;
53497;SDS011;39382;47.168;16.008;2023-03-31T15:18:10;6.30;;;3.88;;
53497;SDS011;39382;47.168;16.008;2023-03-31T15:20:39;4.57;;;3.03;;
53497;SDS011;39382;47.168;16.008;2023-03-31T15:25:48;8.35;;;5.32;;
53497;SDS011;39382;47.168;16.008;2023-03-31T15:28:18;6.25;;;3.92;;
53497;SDS011;39382;47.168;16.008;2023-03-31T15:30:45;10.95;;;5.85;;
53497;SDS011;39382;47.168;16.008;2023-03-31T15:33:25;9.18;;;3.72;;
53497;SDS011;39382;47.168;16.008;2023-03-31T15:35:56;10.90;;;5.65;;
53497;SDS011;39382;47.168;16.008;2023-03-31T15:38:23;6.82;;;3.83;;
53497;SDS011;39382;47.168;16.008;2023-03-31T15:40:53;5.05;;;2.75;;
53497;SDS011;39382;47.168;16.008;2023-03-31T15:43:30;2.25;;;1.20;;
53497;SDS011;39382;47.168;16.008;2023-03-31T15:46:08;6.68;;;3.70;;
53497;SDS011;39382;47.168;16.008;2023-03-31T15:48:49;4.75;;;2.55;;
53497;SDS011;39382;47.168;16.008;2023-03-31T15:59:22;1.67;;;1.35;;
53497;SDS011;39382;47.168;16.008;2023-03-31T16:01:49;1.75;;;0.88;;
53497;SDS011;39382;47.168;16.008;2023-03-31T16:04:18;2.92;;;1.25;;
53497;SDS011;39382;47.168;16.008;2023-03-31T16:06:45;1.05;;;1.05;;
53497;SDS011;39382;47.168;16.008;2023-03-31T16:09:13;2.22;;;0.90;;
53497;SDS011;39382;47.168;16.008;2023-03-31T16:11:51;1.02;;;0.80;;
53497;SDS011;39382;47.168;16.008;2023-03-31T16:16:56;3.40;;;2.03;;
53497;SDS011;39382;47.168;16.008;2023-03-31T16:19:28;4.90;;;1.50;;
53497;SDS011;39382;47.168;16.008;2023-03-31T16:22:02;2.78;;;1.40;;
53497;SDS011;39382;47.168;16.008;2023-03-31T16:24:32;1.75;;;1.65;;
53497;SDS011;39382;47.168;16.008;2023-03-31T16:27:00;5.15;;;1.65;;
53497;SDS011;39382;47.168;16.008;2023-03-31T16:29:30;2.97;;;2.08;;
53497;SDS011;39382;47.168;16.008;2023-03-31T16:32:14;4.18;;;2.63;;
53497;SDS011;39382;47.168;16.008;2023-03-31T16:34:52;3.58;;;2.10;;
53497;SDS011;39382;47.168;16.008;2023-03-31T16:37:22;1.70;;;1.50;;
53497;SDS011;39382;47.168;16.008;2023-03-31T16:39:48;4.47;;;1.77;;
53497;SDS011;39382;47.168;16.008;2023-03-31T16:42:13;2.50;;;1.83;;
53497;SDS011;39382;47.168;16.008;2023-03-31T16:44:39;4.90;;;1.40;;
53497;SDS011;39382;47.168;16.008;2023-03-31T16:47:05;0.95;;;0.50;;
53497;SDS011;39382;47.168;16.008;2023-03-31T16:49:31;11.50;;;3.70;;
53497;SDS011;39382;47.168;16.008;2023-03-31T16:51:56;3.60;;;0.70;;
53497;SDS011;39382;47.168;16.008;2023-03-31T16:54:22;0.55;;;0.35;;
53497;SDS011;39382;47.168;16.008;2023-03-31T16:56:48;1.02;;;0.50;;
53497;SDS011;39382;47.168;16.008;2023-03-31T16:59:14;0.52;;;0.50;;
53497;SDS011;39382;47.168;16.008;2023-03-31T17:01:39;0.30;;;0.30;;
53497;SDS011;39382;47.168;16.008;2023-03-31T17:04:05;0.50;;;0.50;;
53497;SDS011;39382;47.168;16.008;2023-03-31T17:06:31;0.70;;;0.55;;
53497;SDS011;39382;47.168;16.008;2023-03-31T17:08:57;2.20;;;0.30;;
53497;SDS011;39382;47.168;16.008;2023-03-31T17:11:22;0.50;;;0.50;;
53497;SDS011;39382;47.168;16.008;2023-03-31T17:13:48;6.70;;;0.70;;
53497;SDS011;39382;47.168;16.008;2023-03-31T17:16:14;0.40;;;0.40;;
53497;SDS011;39382;47.168;16.008;2023-03-31T17:18:42;0.40;;;0.40;;
53497;SDS011;39382;47.168;16.008;2023-03-31T17:21:11;2.00;;;0.70;;
53497;SDS011;39382;47.168;16.008;2023-03-31T17:23:38;1.70;;;0.40;;
53497;SDS011;39382;47.168;16.008;2023-03-31T17:26:05;4.13;;;0.90;;
53497;SDS011;39382;47.168;16.008;2023-03-31T17:28:33;1.30;;;0.50;;
53497;SDS011;39382;47.168;16.008;2023-03-31T17:30:59;0.32;;;0.30;;
53497;SDS011;39382;47.168;16.008;2023-03-31T17:33:25;0.28;;;0.28;;
53497;SDS011;39382;47.168;16.008;2023-03-31T17:35:58;1.02;;;0.25;;
53497;SDS011;39382;47.168;16.008;2023-03-31T17:38:24;1.83;;;0.40;;
53497;SDS011;39382;47.168;16.008;2023-03-31T17:40:50;1.98;;;0.22;;
53497;SDS011;39382;47.168;16.008;2023-03-31T17:43:16;0.90;;;0.50;;
53497;SDS011;39382;47.168;16.008;2023-03-31T17:45:41;1.55;;;0.80;;
53497;SDS011;39382;47.168;16.008;2023-03-31T17:48:07;0.98;;;0.90;;
53497;SDS011;39382;47.168;16.008;2023-03-31T17:50:34;0.38;;;0.38;;
53497;SDS011;39382;47.168;16.008;2023-03-31T17:53:01;0.60;;;0.30;;
53497;SDS011;39382;47.168;16.008;2023-03-31T17:55:32;1.17;;;0.10;;
53497;SDS011;39382;47.168;16.008;2023-03-31T17:57:59;1.52;;;0.28;;
53497;SDS011;39382;47.168;16.008;2023-03-31T18:00:25;0.30;;;0.30;;
53497;SDS011;39382;47.168;16.008;2023-03-31T18:02:51;0.55;;;0.35;;
53497;SDS011;39382;47.168;16.008;2023-03-31T18:05:18;4.78;;;0.30;;
53497;SDS011;39382;47.168;16.008;2023-03-31T18:07:44;0.28;;;0.25;;
53497;SDS011;39382;47.168;16.008;2023-03-31T18:10:10;0.50;;;0.50;;
53497;SDS011;39382;47.168;16.008;2023-03-31T18:12:35;25.52;;;10.38;;
53497;SDS011;39382;47.168;16.008;2023-03-31T18:15:02;5.85;;;4.38;;
53497;SDS011;39382;47.168;16.008;2023-03-31T18:17:29;1.75;;;0.95;;
53497;SDS011;39382;47.168;16.008;2023-03-31T18:19:55;1.13;;;0.70;;
53497;SDS011;39382;47.168;16.008;2023-03-31T18:22:21;12.32;;;9.48;;
53497;SDS011;39382;47.168;16.008;2023-03-31T18:24:47;2.80;;;2.55;;